Terminal Aerodrome Forecast
Issued by NWS

Home | Current Version | Previous Version | Text Only | Print | Product List | Glossary On
Versions: 1 2 3 4 5 6 7 8 9 10 11 12 13
783
FTAK31 PAJN 122352
TAFAPG
TAF
PAPG 122352Z 1300/1324 09005KT P6SM VCSH SCT030 BKN060
     FM130300 VRB03KT P6SM FEW006 BKN070 OVC100
     FM131200 VRB03KT P6SM -SHRA BKN025 OVC040
     FM131500 VRB03KT 4SM -SHRA SCT015 OVC025
     FM132100 07005KT P6SM VCSH SCT025 OVC060
      AMD LTD TO CLD VIS AND WIND 1212/1215=

USA.gov is the U.S. government's official web portal to all federal, state and local government web resources and services.